Time;durP1;ratioP1;P1;durP2;ratioP2;P2;SDS_P1;SDS_P2;PMS_P1;PMS_P2;Temp;Humidity;BMP_temperature;BMP_pressure;BME280_temperature;BME280_humidity;BME280_pressure;Samples;Min_cycle;Max_cycle;Signal;HPM_P1;HPM_P2
2023/03/26 00:01:29;;;;;;;5.83;3.80;;;8.20;99.90;;;;;;5032733;28;20208;-81
2023/03/26 00:03:57;;;;;;;5.37;3.67;;;8.20;99.90;;;;;;5032456;28;20683;-82
2023/03/26 00:06:26;;;;;;;5.73;3.60;;;8.20;99.90;;;;;;5033497;28;20203;-83
2023/03/26 00:08:53;;;;;;;6.27;3.87;;;8.20;99.90;;;;;;5054862;28;20204;-84
2023/03/26 00:11:22;;;;;;;5.90;3.63;;;8.20;99.90;;;;;;5041846;28;20627;-84
2023/03/26 00:13:52;;;;;;;5.63;3.40;;;8.20;99.90;;;;;;5040575;28;20232;-83
2023/03/26 00:16:20;;;;;;;7.23;4.23;;;8.20;99.90;;;;;;5039788;28;20223;-84
2023/03/26 00:18:47;;;;;;;9.27;3.80;;;8.10;99.90;;;;;;5038508;28;20202;-82
2023/03/26 00:21:16;;;;;;;11.43;4.10;;;8.20;99.90;;;;;;5038844;28;20207;-83
2023/03/26 00:23:43;;;;;;;10.00;3.97;;;8.20;99.90;;;;;;5038641;28;20227;-83
2023/03/26 00:26:10;;;;;;;7.67;3.40;;;8.10;99.90;;;;;;5037279;28;20198;-83
2023/03/26 00:28:39;;;;;;;8.47;4.07;;;8.00;99.90;;;;;;5037266;28;20195;-84
2023/03/26 00:31:09;;;;;;;5.03;3.33;;;7.90;99.90;;;;;;5037388;28;20219;-83
2023/03/26 00:33:37;;;;;;;5.97;3.90;;;8.00;99.90;;;;;;5038284;28;20223;-84
2023/03/26 00:36:08;;;;;;;5.00;3.60;;;7.90;99.90;;;;;;5037700;28;20196;-83
2023/03/26 00:38:37;;;;;;;7.63;3.80;;;7.90;99.90;;;;;;5035909;28;20192;-83
2023/03/26 00:41:06;;;;;;;6.60;3.53;;;8.00;99.90;;;;;;5037314;28;20218;-84
2023/03/26 00:43:34;;;;;;;8.77;3.97;;;8.00;99.90;;;;;;5037688;28;20215;-84
2023/03/26 00:46:02;;;;;;;12.07;4.17;;;8.00;99.90;;;;;;5035430;28;20203;-83
2023/03/26 00:48:30;;;;;;;6.10;3.90;;;8.00;99.90;;;;;;5037794;28;20196;-84
2023/03/26 00:50:58;;;;;;;10.83;3.23;;;8.10;99.90;;;;;;5037199;28;20230;-84
2023/03/26 00:53:24;;;;;;;5.33;3.50;;;8.10;99.90;;;;;;5033484;28;20216;-84
2023/03/26 00:55:51;;;;;;;9.20;3.30;;;8.20;99.90;;;;;;5038580;28;20202;-85
2023/03/26 00:58:21;;;;;;;6.57;3.30;;;8.20;99.90;;;;;;5034210;28;20200;-84
2023/03/26 01:00:56;;;;;;;9.30;3.50;;;8.20;99.90;;;;;;5036385;28;20274;-85
2023/03/26 01:03:24;;;;;;;6.33;3.73;;;8.20;99.90;;;;;;5038299;28;20219;-85
2023/03/26 01:05:57;;;;;;;6.87;3.73;;;8.20;99.90;;;;;;5036737;28;20574;-85
2023/03/26 01:08:29;;;;;;;8.07;3.90;;;8.20;99.90;;;;;;5037621;28;20192;-84
2023/03/26 01:11:03;;;;;;;8.73;3.50;;;8.20;99.90;;;;;;5037084;28;20220;-84
2023/03/26 01:13:33;;;;;;;7.23;3.50;;;8.30;99.90;;;;;;5037577;28;20219;-84
2023/03/26 01:16:01;;;;;;;5.33;3.57;;;8.30;99.90;;;;;;5035734;28;20565;-85
2023/03/26 01:18:32;;;;;;;5.90;3.80;;;8.30;99.90;;;;;;5037444;28;20196;-85
2023/03/26 01:21:06;;;;;;;6.67;3.23;;;8.10;99.90;;;;;;5037208;28;20294;-84
2023/03/26 01:23:40;;;;;;;5.57;3.53;;;8.20;99.90;;;;;;5037222;28;20220;-84
2023/03/26 01:26:28;;;;;;;4.60;3.07;;;8.30;99.90;;;;;;5037913;28;20565;-83
2023/03/26 01:28:58;;;;;;;7.00;3.27;;;8.20;99.90;;;;;;5032692;28;20196;-84
2023/03/26 01:31:35;;;;;;;5.03;2.60;;;8.20;99.90;;;;;;5036519;28;20229;-84
2023/03/26 01:34:11;;;;;;;5.50;2.77;;;8.20;99.90;;;;;;5033944;28;20199;-84
2023/03/26 01:36:45;;;;;;;4.13;2.23;;;8.10;99.90;;;;;;5036190;28;20206;-85
2023/03/26 01:39:20;;;;;;;4.70;2.60;;;8.00;99.90;;;;;;5032949;28;20195;-84
2023/03/26 01:41:51;;;;;;;3.97;2.10;;;8.10;99.90;;;;;;5036511;28;20655;-84
2023/03/26 01:44:26;;;;;;;3.40;2.33;;;8.00;99.90;;;;;;5036542;28;20207;-84
2023/03/26 01:46:53;;;;;;;4.50;2.50;;;8.00;99.90;;;;;;5036901;28;20655;-85
2023/03/26 01:49:20;;;;;;;8.23;3.93;;;8.00;99.90;;;;;;5036440;28;20219;-84
2023/03/26 01:51:47;;;;;;;5.87;2.67;;;7.90;99.90;;;;;;5036593;28;20220;-84
2023/03/26 01:54:18;;;;;;;3.93;2.00;;;7.80;99.90;;;;;;5037180;28;20204;-84
2023/03/26 01:56:56;;;;;;;3.97;2.20;;;7.80;99.90;;;;;;5037235;28;20202;-85
2023/03/26 01:59:43;;;;;;;3.13;2.03;;;7.70;99.90;;;;;;5037421;28;20215;-84
2023/03/26 02:02:12;;;;;;;5.10;2.03;;;7.70;99.90;;;;;;5019165;28;20303;-84
2023/03/26 02:04:45;;;;;;;2.70;2.10;;;7.70;99.90;;;;;;5037600;28;20629;-84
2023/03/26 02:07:19;;;;;;;5.00;2.10;;;7.70;99.90;;;;;;5035911;28;20648;-84
2023/03/26 02:09:51;;;;;;;2.03;1.63;;;7.60;99.90;;;;;;5035510;28;20218;-85
2023/03/26 02:12:21;;;;;;;6.17;1.83;;;7.50;99.90;;;;;;5036252;28;20230;-84
2023/03/26 02:14:48;;;;;;;5.13;1.77;;;7.50;99.90;;;;;;5035005;28;20574;-84
2023/03/26 02:17:15;;;;;;;3.70;1.70;;;7.40;99.90;;;;;;5034838;28;20206;-85
2023/03/26 02:19:42;;;;;;;2.20;1.33;;;7.50;99.90;;;;;;5033650;28;20200;-84
2023/03/26 02:22:10;;;;;;;5.83;1.83;;;7.50;99.90;;;;;;5034602;28;20710;-84
2023/03/26 02:24:37;;;;;;;5.40;1.27;;;7.50;99.90;;;;;;5034551;28;20235;-84
2023/03/26 02:27:06;;;;;;;3.30;2.13;;;7.50;99.90;;;;;;5034155;28;20203;-84
2023/03/26 02:29:36;;;;;;;3.90;1.43;;;7.60;99.90;;;;;;5034574;28;20249;-84
2023/03/26 02:32:04;;;;;;;3.33;1.70;;;7.60;99.90;;;;;;5037819;28;20261;-84
2023/03/26 02:34:31;;;;;;;3.77;1.70;;;7.60;99.90;;;;;;5037333;28;20230;-84
2023/03/26 02:36:58;;;;;;;3.77;1.70;;;7.60;99.90;;;;;;5036960;28;20200;-84
2023/03/26 02:39:26;;;;;;;3.43;1.90;;;7.60;99.90;;;;;;5036360;28;20196;-84
2023/03/26 02:41:53;;;;;;;4.53;1.93;;;7.60;99.90;;;;;;5035765;28;20692;-84
2023/03/26 02:44:20;;;;;;;5.47;2.10;;;7.60;99.90;;;;;;5035555;28;20202;-82
2023/03/26 02:46:48;;;;;;;4.73;2.20;;;7.50;99.90;;;;;;5037765;28;20577;-81
2023/03/26 02:49:15;;;;;;;6.20;1.93;;;7.60;99.90;;;;;;5038100;28;20203;-81
2023/03/26 02:51:41;;;;;;;4.33;2.40;;;7.60;99.90;;;;;;5038117;28;20231;-81
2023/03/26 02:54:08;;;;;;;6.20;2.30;;;7.60;99.90;;;;;;5038501;28;20691;-81
2023/03/26 02:56:35;;;;;;;3.73;2.30;;;7.60;99.90;;;;;;5038144;28;20223;-81
2023/03/26 02:59:02;;;;;;;4.90;2.50;;;7.60;99.90;;;;;;5038175;28;20195;-81
2023/03/26 03:01:33;;;;;;;3.47;2.57;;;7.60;99.90;;;;;;5037936;28;20202;-81
2023/03/26 03:04:02;;;;;;;4.00;2.33;;;7.70;99.90;;;;;;5037736;28;20199;-81
2023/03/26 03:06:31;;;;;;;6.07;2.47;;;7.60;99.90;;;;;;5038407;28;20633;-81
2023/03/26 03:08:58;;;;;;;5.80;3.07;;;7.70;99.90;;;;;;5037630;28;20215;-81
2023/03/26 03:11:24;;;;;;;6.23;3.40;;;7.70;99.90;;;;;;5037772;28;20231;-82
2023/03/26 03:13:52;;;;;;;6.50;2.80;;;7.70;99.90;;;;;;5037870;28;20706;-81
2023/03/26 03:16:19;;;;;;;6.50;3.57;;;7.60;99.90;;;;;;5038356;28;20580;-81
2023/03/26 03:18:52;;;;;;;7.80;2.97;;;7.70;99.90;;;;;;5037462;28;20227;-81
2023/03/26 03:21:21;;;;;;;5.67;3.03;;;7.60;99.90;;;;;;5037596;28;20200;-82
2023/03/26 03:23:48;;;;;;;4.87;2.73;;;7.60;99.90;;;;;;5037867;28;20219;-81
2023/03/26 03:26:20;;;;;;;3.73;2.90;;;7.50;99.90;;;;;;5021313;28;20200;-81
2023/03/26 03:28:47;;;;;;;4.47;3.13;;;7.50;99.90;;;;;;5020191;28;20200;-81
2023/03/26 03:31:14;;;;;;;4.67;2.77;;;7.50;99.90;;;;;;5037607;28;20789;-81
2023/03/26 03:33:41;;;;;;;6.30;3.00;;;7.40;99.90;;;;;;5037305;28;20239;-81
2023/03/26 03:36:10;;;;;;;4.20;2.90;;;7.40;99.90;;;;;;5037782;28;20207;-81
2023/03/26 03:38:39;;;;;;;4.77;3.10;;;7.40;99.90;;;;;;5037096;28;20647;-81
2023/03/26 03:41:07;;;;;;;7.97;3.03;;;7.40;99.90;;;;;;5036435;28;20730;-81
2023/03/26 03:43:34;;;;;;;4.77;2.90;;;7.30;99.90;;;;;;5037164;28;20233;-81
2023/03/26 03:46:01;;;;;;;5.83;3.00;;;7.30;99.90;;;;;;5036584;28;20290;-81
2023/03/26 03:48:28;;;;;;;5.57;2.97;;;7.30;99.90;;;;;;5037203;28;20683;-82
2023/03/26 03:50:55;;;;;;;4.03;2.93;;;7.30;99.90;;;;;;5036975;28;20227;-81
2023/03/26 03:53:24;;;;;;;9.33;3.07;;;7.30;99.90;;;;;;5037145;28;20219;-81
2023/03/26 03:55:53;;;;;;;5.20;3.00;;;7.30;99.90;;;;;;5037052;28;20212;-81
2023/03/26 03:58:20;;;;;;;6.23;2.87;;;7.30;99.90;;;;;;5037275;28;20274;-81
2023/03/26 04:00:48;;;;;;;5.93;2.70;;;7.30;99.90;;;;;;5037327;28;20544;-81
2023/03/26 04:03:15;;;;;;;5.50;2.60;;;7.30;99.90;;;;;;5036883;28;20265;-81
2023/03/26 04:05:48;;;;;;;4.47;2.80;;;7.30;99.90;;;;;;5036972;28;20212;-82
2023/03/26 04:08:15;;;;;;;7.40;2.63;;;7.40;99.90;;;;;;5037225;28;20588;-81
2023/03/26 04:10:42;;;;;;;8.90;2.70;;;7.40;99.90;;;;;;5037163;28;20219;-81
2023/03/26 04:13:11;;;;;;;3.70;2.57;;;7.50;99.90;;;;;;5036555;28;20688;-81
2023/03/26 04:15:38;;;;;;;5.13;2.60;;;7.50;99.90;;;;;;5037081;28;20271;-81
2023/03/26 04:18:09;;;;;;;7.80;2.53;;;7.50;99.90;;;;;;5036476;28;20203;-81
2023/03/26 04:20:36;;;;;;;6.27;2.80;;;7.50;99.90;;;;;;5036589;28;20243;-81
2023/03/26 04:23:03;;;;;;;5.70;3.13;;;7.50;99.90;;;;;;5036328;28;20220;-81
2023/03/26 04:25:32;;;;;;;8.83;2.80;;;7.50;99.90;;;;;;5036724;28;20204;-81
2023/03/26 04:28:00;;;;;;;5.20;2.50;;;7.60;99.90;;;;;;5035770;28;20203;-81
2023/03/26 04:30:28;;;;;;;3.63;2.43;;;7.60;99.90;;;;;;5036274;28;20200;-81
2023/03/26 04:32:57;;;;;;;6.23;2.63;;;7.60;99.90;;;;;;5036168;28;20249;-81
2023/03/26 04:35:24;;;;;;;6.50;2.73;;;7.60;99.90;;;;;;5035880;28;20203;-81
2023/03/26 04:37:51;;;;;;;6.57;2.53;;;7.60;99.90;;;;;;5036131;28;20212;-81
2023/03/26 04:40:21;;;;;;;8.47;3.00;;;7.60;99.90;;;;;;5035865;28;20215;-81
2023/03/26 04:42:48;;;;;;;3.90;2.90;;;7.60;99.90;;;;;;5035905;28;20223;-81
2023/03/26 04:45:21;;;;;;;6.57;2.70;;;7.60;99.90;;;;;;5035904;28;20790;-81
2023/03/26 04:47:49;;;;;;;8.03;2.90;;;7.60;99.90;;;;;;5036083;28;20303;-81
2023/03/26 04:50:16;;;;;;;6.13;3.33;;;7.60;99.90;;;;;;5036062;28;20208;-81
2023/03/26 04:52:43;;;;;;;6.10;3.20;;;7.60;99.90;;;;;;5034267;28;20235;-81
2023/03/26 04:55:19;;;;;;;6.67;2.93;;;7.50;99.90;;;;;;5035436;28;20207;-81
2023/03/26 04:57:50;;;;;;;4.00;3.00;;;7.50;99.90;;;;;;5035722;28;20239;-81
2023/03/26 05:00:18;;;;;;;6.33;2.97;;;7.50;99.90;;;;;;5035522;28;20306;-81
2023/03/26 05:02:48;;;;;;;5.30;3.20;;;7.40;99.90;;;;;;5036568;28;20220;-81
2023/03/26 05:05:17;;;;;;;5.63;3.57;;;7.40;99.90;;;;;;5036121;28;20680;-81
2023/03/26 05:07:44;;;;;;;8.80;4.20;;;7.40;99.90;;;;;;5034323;28;20199;-81
2023/03/26 05:10:13;;;;;;;9.20;3.40;;;7.40;99.90;;;;;;5035086;28;20211;-81
2023/03/26 05:12:40;;;;;;;7.43;3.97;;;7.30;99.90;;;;;;5034455;28;20233;-81
2023/03/26 05:15:08;;;;;;;12.13;4.80;;;7.40;99.90;;;;;;5035125;28;20203;-81
2023/03/26 05:17:40;;;;;;;10.70;3.87;;;7.30;99.90;;;;;;5034842;28;20602;-81
2023/03/26 05:20:15;;;;;;;7.47;3.97;;;7.40;99.90;;;;;;5034602;28;20330;-81
2023/03/26 05:22:44;;;;;;;8.53;4.13;;;7.40;99.90;;;;;;5015807;28;20216;-81
2023/03/26 05:25:11;;;;;;;12.97;4.47;;;7.40;99.90;;;;;;5014402;28;20291;-81
2023/03/26 05:27:38;;;;;;;11.60;4.77;;;7.40;99.90;;;;;;5014658;28;20200;-81
2023/03/26 05:30:07;;;;;;;8.67;4.20;;;7.50;99.90;;;;;;5014827;28;20227;-81
2023/03/26 05:32:34;;;;;;;8.73;3.90;;;7.50;99.90;;;;;;5013913;28;20586;-80
2023/03/26 05:35:02;;;;;;;8.70;4.23;;;7.50;99.90;;;;;;5014503;28;20215;-83
2023/03/26 05:37:30;;;;;;;6.53;3.97;;;7.50;99.90;;;;;;5014639;28;20211;-83
2023/03/26 05:39:58;;;;;;;9.77;4.53;;;7.50;99.90;;;;;;5014156;28;20298;-82
2023/03/26 05:42:27;;;;;;;12.03;4.83;;;7.50;99.90;;;;;;5014686;28;20251;-83
2023/03/26 05:44:54;;;;;;;9.93;5.17;;;7.50;99.90;;;;;;5016668;28;20713;-84
2023/03/26 05:47:20;;;;;;;9.83;4.50;;;7.50;99.90;;;;;;5027406;28;20196;-84
2023/03/26 05:49:47;;;;;;;9.43;4.43;;;7.50;99.90;;;;;;5033832;28;20222;-84
2023/03/26 05:52:17;;;;;;;9.10;4.40;;;7.50;99.90;;;;;;5033088;28;20688;-84
2023/03/26 05:54:44;;;;;;;11.63;4.87;;;7.50;99.90;;;;;;5033053;28;20307;-84
2023/03/26 05:57:12;;;;;;;10.10;4.73;;;7.60;99.90;;;;;;5032921;28;20210;-84
2023/03/26 05:59:40;;;;;;;9.10;3.87;;;7.60;99.90;;;;;;5031943;28;20286;-84
2023/03/26 06:02:07;;;;;;;9.67;4.90;;;7.60;99.90;;;;;;5032618;28;20810;-84
2023/03/26 06:04:34;;;;;;;8.27;4.40;;;7.50;99.90;;;;;;5032574;28;20210;-84
2023/03/26 06:07:02;;;;;;;10.33;4.20;;;7.60;99.90;;;;;;5032031;28;20645;-84
2023/03/26 06:09:29;;;;;;;8.53;4.20;;;7.60;99.90;;;;;;5031791;28;20211;-84
2023/03/26 06:11:56;;;;;;;10.33;4.50;;;7.60;99.90;;;;;;5031794;28;20309;-83
2023/03/26 06:14:24;;;;;;;10.80;4.20;;;7.50;99.90;;;;;;5031536;28;20191;-84
2023/03/26 06:16:51;;;;;;;9.20;4.57;;;7.60;99.90;;;;;;5031255;28;20203;-84
2023/03/26 06:19:17;;;;;;;8.47;3.60;;;7.60;99.90;;;;;;5032303;28;20204;-86
2023/03/26 06:21:44;;;;;;;9.63;4.47;;;7.60;99.90;;;;;;5033165;28;20575;-82
2023/03/26 06:24:11;;;;;;;10.13;4.47;;;7.70;99.90;;;;;;5033197;28;20200;-82
2023/03/26 06:26:38;;;;;;;8.17;4.33;;;7.70;99.90;;;;;;5032639;28;20207;-83
2023/03/26 06:29:04;;;;;;;12.80;5.10;;;7.70;99.90;;;;;;5032585;28;20206;-83
2023/03/26 06:31:33;;;;;;;9.67;4.17;;;7.80;99.90;;;;;;5033308;28;20746;-82
2023/03/26 06:33:59;;;;;;;10.47;4.10;;;7.80;99.90;;;;;;5033043;28;20195;-82
2023/03/26 06:36:27;;;;;;;10.53;4.33;;;7.80;99.90;;;;;;5032881;28;20199;-83
2023/03/26 06:38:53;;;;;;;7.53;3.87;;;7.90;99.90;;;;;;5035199;28;20652;-82
2023/03/26 06:41:20;;;;;;;8.77;4.27;;;7.90;99.90;;;;;;5036305;28;20295;-84
2023/03/26 06:43:47;;;;;;;6.17;3.90;;;7.80;99.90;;;;;;5035175;28;20223;-82
2023/03/26 06:46:14;;;;;;;8.77;4.00;;;7.90;99.90;;;;;;5034419;28;20199;-82
2023/03/26 06:48:42;;;;;;;7.67;3.07;;;7.90;99.90;;;;;;5037617;28;20294;-84
2023/03/26 06:51:10;;;;;;;7.80;3.40;;;7.90;99.90;;;;;;5027440;28;20212;-83
2023/03/26 06:53:37;;;;;;;8.17;3.30;;;7.90;99.90;;;;;;5031205;28;20306;-84
2023/03/26 06:56:04;;;;;;;8.37;3.30;;;7.90;99.90;;;;;;5037098;28;20203;-83
2023/03/26 06:58:31;;;;;;;10.60;3.80;;;8.00;99.90;;;;;;5039528;28;20211;-82
2023/03/26 07:00:57;;;;;;;4.93;3.43;;;8.00;99.90;;;;;;5027330;28;20200;-83
2023/03/26 07:03:24;;;;;;;7.27;3.47;;;8.00;99.90;;;;;;5022515;28;20243;-83
2023/03/26 07:05:52;;;;;;;8.73;3.40;;;8.10;99.90;;;;;;5021636;28;20635;-83
2023/03/26 07:08:19;;;;;;;5.67;3.00;;;8.10;99.90;;;;;;5036477;28;20203;-82
2023/03/26 07:10:46;;;;;;;5.77;2.80;;;8.10;99.90;;;;;;5037203;28;20211;-84
2023/03/26 07:13:13;;;;;;;5.20;3.10;;;8.20;99.90;;;;;;5028550;28;20230;-83
2023/03/26 07:15:40;;;;;;;7.60;2.97;;;8.30;99.90;;;;;;5044034;28;20661;-84
2023/03/26 07:18:07;;;;;;;8.20;3.50;;;8.40;99.90;;;;;;5048477;28;20305;-82
2023/03/26 07:20:35;;;;;;;4.17;2.37;;;8.50;99.90;;;;;;5034272;28;20211;-83
2023/03/26 07:23:03;;;;;;;8.83;3.17;;;8.60;99.90;;;;;;5041682;28;20222;-83
2023/03/26 07:25:31;;;;;;;7.40;3.87;;;8.60;99.90;;;;;;5045357;28;20207;-82
2023/03/26 07:28:05;;;;;;;11.20;3.93;;;8.70;99.90;;;;;;5050003;28;20203;-83
2023/03/26 07:30:42;;;;;;;10.20;3.57;;;8.70;99.90;;;;;;5043650;28;20279;-83
2023/03/26 07:33:17;;;;;;;8.37;2.80;;;8.70;99.90;;;;;;5034858;28;20235;-82
2023/03/26 07:35:50;;;;;;;6.67;3.17;;;8.80;99.90;;;;;;5037986;28;20560;-82
2023/03/26 07:38:32;;;;;;;3.57;2.10;;;8.80;99.90;;;;;;5041885;28;20619;-82
2023/03/26 07:41:10;;;;;;;7.30;2.90;;;8.80;99.90;;;;;;5044695;28;20249;-83
2023/03/26 07:43:58;;;;;;;5.00;3.00;;;8.80;99.90;;;;;;5032236;28;20234;-82
2023/03/26 07:46:30;;;;;;;4.33;2.73;;;8.90;99.90;;;;;;5042830;28;20210;-82
2023/03/26 07:48:59;;;;;;;8.30;2.20;;;9.10;99.90;;;;;;5046009;28;20217;-82
2023/03/26 07:51:26;;;;;;;7.27;2.50;;;9.20;99.90;;;;;;5039389;28;20196;-81
2023/03/26 07:53:55;;;;;;;3.90;2.60;;;9.20;99.90;;;;;;5044568;28;20663;-82
2023/03/26 07:56:28;;;;;;;8.47;2.70;;;9.50;99.90;;;;;;5041706;28;20253;-81
2023/03/26 07:59:05;;;;;;;7.60;2.63;;;10.20;99.90;;;;;;5044396;28;20208;-81
2023/03/26 08:01:50;;;;;;;3.47;2.27;;;10.20;99.90;;;;;;5036922;28;20579;-81
2023/03/26 08:04:54;;;;;;;5.93;2.20;;;10.70;99.90;;;;;;5032241;28;20210;-81
2023/03/26 08:07:31;;;;;;;8.13;2.90;;;10.50;99.90;;;;;;5028971;28;20203;-82
2023/03/26 08:10:07;;;;;;;5.70;2.60;;;10.00;99.90;;;;;;5036367;28;20281;-81
2023/03/26 08:12:47;;;;;;;6.17;2.33;;;9.80;99.90;;;;;;5035771;28;20219;-81
2023/03/26 08:15:21;;;;;;;5.10;2.17;;;9.70;99.90;;;;;;5020350;28;20203;-81
2023/03/26 08:17:52;;;;;;;4.30;2.10;;;9.80;99.90;;;;;;5036914;28;20208;-82
2023/03/26 08:20:29;;;;;;;6.13;2.00;;;9.90;99.90;;;;;;5036817;28;20229;-81
2023/03/26 08:23:05;;;;;;;5.90;2.00;;;10.00;99.90;;;;;;5040089;28;20575;-79
2023/03/26 08:25:39;;;;;;;6.70;2.40;;;10.00;99.90;;;;;;5038663;28;20223;-80
2023/03/26 08:28:28;;;;;;;4.47;2.60;;;10.00;99.90;;;;;;5029460;28;20253;-80
2023/03/26 08:30:55;;;;;;;4.73;2.10;;;10.00;99.90;;;;;;5046908;28;20203;-82
2023/03/26 08:33:25;;;;;;;5.53;1.90;;;9.80;99.90;;;;;;5040160;28;20230;-82
2023/03/26 08:35:52;;;;;;;6.03;1.97;;;9.60;99.90;;;;;;5045784;28;20206;-82
2023/03/26 08:38:20;;;;;;;3.87;1.97;;;9.60;99.90;;;;;;5032403;28;20231;-82
2023/03/26 08:41:30;;;;;;;3.90;1.93;;;9.80;99.90;;;;;;5035666;28;20683;-81
2023/03/26 08:44:50;;;;;;;2.30;2.07;;;9.70;99.90;;;;;;5044983;28;20219;-82
2023/03/26 08:47:49;;;;;;;4.67;1.80;;;9.60;99.90;;;;;;5018698;28;20295;-82
2023/03/26 08:50:33;;;;;;;4.47;1.73;;;9.80;99.90;;;;;;5031331;28;20202;-83
2023/03/26 08:53:27;;;;;;;4.37;1.83;;;9.90;99.90;;;;;;5047744;28;20227;-80
2023/03/26 08:55:56;;;;;;;4.30;1.90;;;9.80;99.90;;;;;;4994934;28;20215;-80
2023/03/26 08:59:00;;;;;;;6.00;2.87;;;10.10;99.90;;;;;;5031042;28;20203;-80
2023/03/26 09:01:44;;;;;;;5.17;1.93;;;10.40;99.90;;;;;;5041958;28;20203;-80
2023/03/26 09:04:31;;;;;;;6.97;2.20;;;10.50;99.90;;;;;;5031364;28;20249;-79
2023/03/26 09:07:26;;;;;;;6.77;2.63;;;10.70;99.90;;;;;;5036452;28;20219;-80
2023/03/26 09:10:21;;;;;;;7.20;2.30;;;10.60;99.90;;;;;;5039486;28;20204;-80
2023/03/26 09:13:21;;;;;;;6.77;2.90;;;10.80;99.90;;;;;;4968364;28;20236;-80
2023/03/26 09:16:27;;;;;;;6.10;2.73;;;10.90;99.90;;;;;;5042719;28;20687;-82
2023/03/26 09:19:23;;;;;;;4.27;2.23;;;10.80;99.90;;;;;;4941329;29;20696;-80
2023/03/26 09:22:17;;;;;;;7.57;2.70;;;10.90;99.90;;;;;;5041946;28;20691;-80
2023/03/26 09:25:14;;;;;;;7.30;2.90;;;10.90;99.90;;;;;;5036167;28;20204;-80
2023/03/26 09:28:02;;;;;;;7.20;3.17;;;11.10;99.90;;;;;;5032680;28;20209;-79
2023/03/26 09:30:58;;;;;;;7.47;2.67;;;11.70;99.90;;;;;;5035290;28;20632;-81
2023/03/26 09:33:59;;;;;;;7.87;2.90;;;11.80;99.90;;;;;;5041275;28;20664;-82
2023/03/26 09:36:53;;;;;;;5.57;2.60;;;11.90;99.90;;;;;;4951515;29;20402;-80
2023/03/26 09:39:34;;;;;;;6.27;2.80;;;11.60;99.90;;;;;;5029666;28;20210;-79
2023/03/26 09:42:10;;;;;;;5.53;2.60;;;11.50;99.90;;;;;;5041813;28;20258;-79
2023/03/26 09:45:02;;;;;;;6.70;3.00;;;11.40;99.90;;;;;;5038536;28;20195;-82
2023/03/26 09:47:51;;;;;;;6.17;2.80;;;11.30;99.90;;;;;;5036901;28;20204;-79
2023/03/26 09:50:33;;;;;;;7.10;5.23;;;11.30;99.90;;;;;;5031647;28;20199;-80
2023/03/26 09:53:28;;;;;;;5.53;3.00;;;11.20;99.90;;;;;;5029552;28;20233;-80
2023/03/26 09:56:08;;;;;;;5.30;3.03;;;11.20;99.90;;;;;;5032286;28;20206;-80
2023/03/26 09:59:14;;;;;;;7.13;3.00;;;11.30;99.90;;;;;;5048924;28;20284;-79
2023/03/26 10:01:47;;;;;;;6.53;3.57;;;11.20;99.90;;;;;;5032955;28;20208;-80
2023/03/26 10:05:10;;;;;;;4.17;2.70;;;11.00;99.90;;;;;;5038274;28;20210;-80
2023/03/26 10:07:59;;;;;;;6.93;2.60;;;10.90;99.90;;;;;;4975672;28;20205;-80
2023/03/26 10:10:35;;;;;;;7.47;2.93;;;11.10;99.90;;;;;;4975492;28;20213;-80
2023/03/26 10:13:22;;;;;;;7.27;2.90;;;11.20;99.90;;;;;;5014101;28;20686;-80
2023/03/26 10:16:10;;;;;;;6.87;2.70;;;11.30;99.90;;;;;;5036198;28;20664;-80
2023/03/26 10:18:52;;;;;;;7.67;2.90;;;11.30;99.90;;;;;;5031386;28;20208;-80
2023/03/26 10:21:26;;;;;;;6.13;2.47;;;11.60;99.90;;;;;;5033339;28;20659;-79
2023/03/26 10:24:15;;;;;;;6.43;3.03;;;12.00;99.90;;;;;;5035216;28;20592;-79
2023/03/26 10:27:03;;;;;;;7.43;3.00;;;12.10;99.90;;;;;;5017746;28;20211;-80
2023/03/26 10:29:53;;;;;;;3.83;2.50;;;12.30;99.90;;;;;;5044480;28;20596;-81
2023/03/26 10:32:30;;;;;;;4.93;2.60;;;12.30;99.90;;;;;;5035120;28;20318;-79
2023/03/26 10:35:11;;;;;;;3.43;2.07;;;12.00;99.90;;;;;;5039830;28;20242;-80
2023/03/26 10:37:53;;;;;;;5.27;2.20;;;11.60;99.90;;;;;;5029206;28;20227;-79
2023/03/26 10:40:27;;;;;;;6.20;2.80;;;11.70;99.90;;;;;;5039797;28;20214;-81
2023/03/26 10:43:24;;;;;;;4.23;2.40;;;12.10;99.90;;;;;;5033415;28;20640;-80
2023/03/26 10:46:14;;;;;;;5.77;2.70;;;12.10;99.90;;;;;;5041459;28;20299;-81
2023/03/26 10:49:14;;;;;;;5.33;2.77;;;11.80;99.90;;;;;;5030319;28;20290;-82
2023/03/26 10:51:52;;;;;;;7.67;2.70;;;12.20;99.90;;;;;;5049069;28;20207;-81
2023/03/26 10:54:31;;;;;;;5.40;3.00;;;12.30;99.90;;;;;;5030372;28;20265;-81
2023/03/26 10:57:02;;;;;;;4.77;2.73;;;12.10;99.90;;;;;;5032388;28;20226;-80
2023/03/26 10:59:29;;;;;;;5.37;2.77;;;12.00;99.90;;;;;;5034973;28;20577;-81
2023/03/26 11:02:05;;;;;;;4.90;2.77;;;12.40;99.90;;;;;;5033813;28;20230;-82
2023/03/26 11:04:41;;;;;;;6.90;3.20;;;12.50;99.90;;;;;;5033345;28;20204;-80
2023/03/26 11:07:19;;;;;;;7.00;2.73;;;12.50;99.90;;;;;;5035791;28;20211;-81
2023/03/26 11:09:53;;;;;;;5.43;2.40;;;12.70;99.90;;;;;;5029021;28;20231;-83
2023/03/26 11:12:29;;;;;;;3.67;2.20;;;12.80;99.90;;;;;;5028920;28;20303;-83
2023/03/26 11:15:16;;;;;;;4.93;2.50;;;12.30;99.90;;;;;;5032769;28;20200;-83
2023/03/26 11:17:50;;;;;;;6.70;2.40;;;11.60;99.90;;;;;;5051287;28;20231;-81
2023/03/26 11:20:20;;;;;;;7.00;2.70;;;11.40;99.90;;;;;;5029858;28;20222;-81
2023/03/26 11:22:59;;;;;;;7.27;3.70;;;11.30;99.90;;;;;;5035827;28;20224;-81
2023/03/26 11:25:33;;;;;;;5.23;2.20;;;11.30;99.90;;;;;;5032215;28;20208;-82
2023/03/26 11:28:18;;;;;;;5.13;3.00;;;11.20;99.90;;;;;;5031163;28;20204;-82
2023/03/26 11:30:53;;;;;;;4.53;2.20;;;11.40;99.90;;;;;;5034789;28;20258;-82
2023/03/26 11:33:26;;;;;;;5.97;3.20;;;11.70;99.90;;;;;;5042955;28;20261;-83
2023/03/26 11:35:58;;;;;;;7.87;2.53;;;11.50;99.90;;;;;;5040309;28;20200;-83
2023/03/26 11:38:31;;;;;;;4.77;2.73;;;11.90;99.90;;;;;;5046194;28;20237;-82
2023/03/26 11:41:01;;;;;;;6.60;2.97;;;11.70;99.90;;;;;;5038039;28;20215;-81
2023/03/26 11:43:34;;;;;;;5.77;3.00;;;11.50;99.90;;;;;;5037394;28;20269;-81
2023/03/26 11:46:03;;;;;;;6.80;2.93;;;11.60;99.90;;;;;;5038386;28;20658;-81
2023/03/26 11:48:33;;;;;;;8.20;3.37;;;11.60;99.90;;;;;;5030686;28;20269;-82
2023/03/26 11:51:04;;;;;;;5.07;3.10;;;11.20;99.90;;;;;;5041249;28;20286;-81
2023/03/26 11:53:37;;;;;;;5.77;3.57;;;11.40;99.90;;;;;;5041812;28;20320;-82
2023/03/26 11:56:07;;;;;;;6.60;3.70;;;11.20;99.90;;;;;;5034298;28;20226;-80
2023/03/26 11:58:43;;;;;;;7.43;3.87;;;11.00;99.90;;;;;;5037062;28;20709;-80
2023/03/26 12:01:14;;;;;;;8.60;4.00;;;11.10;99.90;;;;;;5022967;28;20268;-81
2023/03/26 12:03:41;;;;;;;6.23;4.03;;;11.20;99.90;;;;;;5025052;28;20226;-81
2023/03/26 12:06:24;;;;;;;6.57;3.50;;;11.20;99.90;;;;;;5038858;28;20882;-80
2023/03/26 12:08:51;;;;;;;7.00;3.57;;;11.10;99.90;;;;;;5042731;28;20227;-80
2023/03/26 12:11:20;;;;;;;9.53;3.77;;;11.30;99.90;;;;;;5045248;28;20295;-80
2023/03/26 12:13:56;;;;;;;6.47;3.90;;;11.30;99.90;;;;;;5043006;28;20386;-80
2023/03/26 12:16:22;;;;;;;6.10;3.50;;;11.50;99.90;;;;;;5033048;28;20619;-80
2023/03/26 12:18:59;;;;;;;8.17;3.57;;;11.40;99.90;;;;;;5041673;28;20199;-83
2023/03/26 12:21:26;;;;;;;8.57;3.20;;;11.40;99.90;;;;;;5033996;28;20706;-82
2023/03/26 12:23:58;;;;;;;4.67;3.20;;;11.40;99.90;;;;;;5034961;28;20219;-81
2023/03/26 12:26:36;;;;;;;6.97;3.70;;;11.40;99.90;;;;;;5044567;28;20231;-81
2023/03/26 12:29:13;;;;;;;6.47;3.70;;;11.30;99.90;;;;;;5029477;28;20195;-81
2023/03/26 12:31:51;;;;;;;7.33;3.83;;;11.10;99.90;;;;;;5042871;28;20207;-81
2023/03/26 12:34:20;;;;;;;7.53;3.77;;;11.30;99.90;;;;;;5045162;28;20231;-86
2023/03/26 12:36:50;;;;;;;8.33;4.20;;;11.30;99.90;;;;;;5035466;28;20653;-81
2023/03/26 12:39:28;;;;;;;4.73;3.63;;;11.10;99.90;;;;;;5039175;28;20211;-81
2023/03/26 12:41:57;;;;;;;6.50;3.87;;;11.30;99.90;;;;;;5032564;28;20238;-80
2023/03/26 12:44:29;;;;;;;9.13;4.23;;;11.40;99.90;;;;;;5038885;28;20285;-80
2023/03/26 12:47:14;;;;;;;6.90;3.83;;;11.40;99.90;;;;;;5037786;28;20619;-80
2023/03/26 12:49:41;;;;;;;6.00;3.70;;;11.20;99.90;;;;;;5045487;28;20557;-80
2023/03/26 12:52:44;;;;;;;8.60;3.60;;;11.30;99.90;;;;;;5036544;28;20221;-81
2023/03/26 12:55:31;;;;;;;7.10;3.50;;;11.50;99.90;;;;;;5035642;28;20224;-81
2023/03/26 12:58:04;;;;;;;8.70;4.23;;;11.60;99.90;;;;;;5031389;28;20203;-80
2023/03/26 13:00:43;;;;;;;7.33;3.60;;;11.60;99.90;;;;;;5036354;28;20211;-80
2023/03/26 13:03:22;;;;;;;8.07;5.33;;;11.40;99.90;;;;;;5032512;28;20250;-80
2023/03/26 13:06:10;;;;;;;6.70;3.73;;;11.40;99.90;;;;;;5034136;28;20228;-81
2023/03/26 13:09:05;;;;;;;7.67;3.90;;;11.40;99.90;;;;;;5035215;28;20298;-82
2023/03/26 13:11:40;;;;;;;6.73;4.23;;;11.40;99.90;;;;;;5031383;28;20555;-86
2023/03/26 13:14:34;;;;;;;9.00;3.40;;;11.30;99.90;;;;;;5046678;28;20223;-85
2023/03/26 13:17:09;;;;;;;7.93;4.13;;;11.30;99.90;;;;;;5039603;28;20294;-85
2023/03/26 13:19:43;;;;;;;7.70;3.97;;;11.40;99.90;;;;;;5040259;28;20291;-86
2023/03/26 13:22:19;;;;;;;5.70;3.30;;;11.40;99.90;;;;;;5040014;28;20279;-87
2023/03/26 13:24:55;;;;;;;7.73;4.03;;;11.50;99.90;;;;;;5040358;28;20551;-87
2023/03/26 13:27:30;;;;;;;6.93;3.90;;;11.30;99.90;;;;;;5036785;28;20278;-86